createdAt,value
2019-04-22T00:04:50.882Z,5.75
2019-04-22T00:15:10.004Z,4.50
2019-04-22T00:20:14.755Z,6.00
2019-04-22T00:25:31.020Z,5.20
2019-04-22T00:30:37.396Z,4.20
2019-04-22T00:35:35.486Z,5.00
2019-04-22T00:40:46.174Z,5.00
2019-04-22T00:51:01.262Z,5.00
2019-04-22T01:06:19.978Z,4.20
2019-04-22T01:11:29.776Z,4.00
2019-04-22T01:16:29.697Z,4.00
2019-04-22T01:26:37.404Z,4.75
2019-04-22T01:31:27.542Z,4.25
2019-04-22T01:36:50.725Z,5.00
2019-04-22T01:42:10.835Z,4.25
2019-04-22T01:47:03.431Z,4.25
2019-04-22T01:52:11.383Z,4.80
2019-04-22T01:57:14.187Z,5.00
2019-04-22T02:02:22.188Z,5.00
2019-04-22T02:07:32.119Z,4.00
2019-04-22T02:12:36.875Z,4.00
2019-04-22T02:23:40.893Z,5.00
2019-04-22T02:28:33.999Z,3.50
2019-04-22T02:38:53.174Z,4.20
2019-04-22T02:49:04.112Z,4.00
2019-04-22T03:09:13.005Z,3.00
2019-04-22T03:14:15.260Z,4.60
2019-04-22T03:30:36.775Z,4.00
2019-04-22T03:45:26.297Z,3.20
2019-04-22T04:05:50.443Z,3.00
2019-04-22T04:16:03.169Z,4.00
2019-04-22T04:21:12.665Z,3.00
2019-04-22T04:26:00.923Z,3.40
2019-04-22T04:31:17.713Z,3.60
2019-04-22T04:41:27.082Z,3.00
2019-04-22T04:46:43.425Z,3.00
2019-04-22T04:56:51.483Z,2.20
2019-04-22T05:01:46.768Z,3.60
2019-04-22T05:12:09.311Z,3.00
2019-04-22T05:17:18.678Z,3.00
2019-04-22T05:22:07.698Z,4.00
2019-04-22T05:27:16.349Z,2.00
2019-04-22T05:32:08.893Z,2.80
2019-04-22T05:37:14.268Z,2.75
2019-04-22T05:42:18.052Z,2.40
2019-04-22T05:47:28.846Z,3.00
2019-04-22T05:52:48.462Z,2.75
2019-04-22T05:57:40.382Z,3.00
2019-04-22T06:02:53.497Z,3.75
2019-04-22T06:07:50.672Z,3.00
2019-04-22T06:12:55.059Z,2.00
2019-04-22T06:18:06.519Z,2.00
2019-04-22T06:23:07.496Z,2.50
2019-04-22T06:28:22.262Z,2.00
2019-04-22T06:33:20.658Z,3.00
2019-04-22T06:38:30.539Z,3.00
2019-04-22T06:43:33.674Z,3.00
2019-04-22T06:48:33.092Z,2.00
2019-04-22T06:58:48.533Z,2.75
2019-04-22T07:09:14.430Z,9.00
2019-04-22T07:14:01.798Z,9.75
2019-04-22T07:19:21.877Z,9.50
2019-04-22T07:24:27.712Z,9.20
2019-04-22T07:29:16.463Z,8.25
2019-04-22T07:34:28.365Z,8.75
2019-04-22T07:39:29.753Z,9.00
2019-04-22T07:44:38.633Z,7.00
2019-04-22T07:49:41.163Z,7.00
2019-04-22T07:54:46.711Z,6.00
2019-04-22T07:59:54.187Z,9.00
2019-04-22T08:10:12.481Z,7.00
2019-04-22T08:15:05.799Z,7.00
2019-04-22T08:20:19.020Z,9.00
2019-04-22T08:25:16.498Z,8.00
2019-04-22T08:30:28.995Z,8.00
2019-04-22T08:35:50.233Z,8.00
2019-04-22T08:40:45.493Z,7.60
2019-04-22T08:45:46.085Z,6.80
2019-04-22T08:50:44.575Z,8.00
2019-04-22T08:56:02.317Z,6.40
2019-04-22T09:01:06.484Z,7.00
2019-04-22T09:06:06.412Z,7.25
2019-04-22T09:11:18.261Z,5.00
2019-04-22T09:16:19.389Z,8.25
2019-04-22T09:26:30.351Z,6.00
2019-04-22T09:31:29.376Z,7.00
2019-04-22T09:36:41.524Z,7.00
2019-04-22T09:41:46.201Z,8.00
2019-04-22T09:46:48.430Z,8.75
2019-04-22T09:51:52.136Z,9.00
2019-04-22T09:56:55.036Z,8.00
2019-04-22T10:02:23.065Z,8.00
2019-04-22T10:07:13.744Z,8.75
2019-04-22T10:12:19.098Z,8.25
2019-04-22T10:17:17.770Z,8.75
2019-04-22T10:27:32.726Z,21.00
2019-04-22T10:32:37.959Z,20.75
2019-04-22T10:37:19.014Z,26.00
2019-04-22T10:42:23.158Z,23.00
2019-04-22T10:47:27.953Z,25.50
2019-04-22T10:52:31.882Z,24.40
2019-04-22T10:57:36.002Z,25.00
2019-04-22T11:02:39.846Z,20.40
2019-04-22T11:07:51.433Z,11.25
2019-04-22T11:12:49.353Z,16.00
2019-04-22T11:17:53.606Z,14.40
2019-04-22T11:22:58.531Z,14.00
2019-04-22T11:28:02.501Z,14.00
2019-04-22T11:33:06.784Z,11.00
2019-04-22T11:38:10.863Z,13.25
2019-04-22T11:43:14.676Z,10.25
2019-04-22T11:48:19.541Z,13.00
2019-04-22T11:53:24.853Z,9.50
2019-04-22T11:58:28.947Z,10.25
2019-04-22T12:03:33.835Z,9.00
2019-04-22T12:08:37.725Z,8.25
2019-04-22T12:13:42.231Z,8.80
2019-04-22T12:18:47.246Z,8.00
2019-04-22T12:23:51.134Z,8.00
2019-04-22T12:28:55.128Z,7.00
2019-04-22T12:33:59.297Z,7.60
2019-04-22T12:39:05.189Z,7.20
2019-04-22T12:44:09.389Z,7.40
2019-04-22T12:49:14.266Z,6.00
2019-04-22T12:54:19.321Z,6.80
2019-04-22T12:59:23.671Z,5.00
2019-04-22T13:04:27.988Z,5.25
2019-04-22T13:09:31.939Z,4.00
2019-04-22T13:14:36.906Z,4.25
2019-04-22T13:19:42.386Z,4.50
2019-04-22T13:24:46.219Z,4.00
2019-04-22T13:29:51.008Z,4.00
2019-04-22T13:34:57.909Z,4.00
2019-04-22T13:40:01.294Z,3.80
2019-04-22T13:45:07.566Z,5.75
2019-04-22T13:51:36.259Z,4.00
2019-04-22T13:55:44.970Z,4.00
2019-04-22T14:00:26.940Z,4.20
2019-04-22T14:05:31.209Z,4.00
2019-04-22T14:10:36.286Z,3.60
2019-04-22T14:15:40.355Z,4.00
2019-04-22T14:20:44.954Z,3.80
2019-04-22T14:25:50.692Z,3.25
2019-04-22T14:30:54.748Z,4.00
2019-04-22T14:36:00.425Z,2.75
2019-04-22T14:41:05.738Z,3.00
2019-04-22T14:46:38.951Z,3.00
2019-04-22T14:51:31.910Z,4.00
2019-04-22T14:56:22.343Z,3.00
2019-04-22T15:01:26.663Z,3.25
2019-04-22T15:06:31.759Z,3.00
2019-04-22T15:11:45.978Z,2.25
2019-04-22T15:16:55.161Z,2.00
2019-04-22T15:21:59.009Z,3.25
2019-04-22T15:27:02.786Z,3.00
2019-04-22T15:32:07.539Z,3.00
2019-04-22T15:37:11.934Z,3.00
2019-04-22T15:42:22.816Z,2.60
2019-04-22T15:47:22.797Z,3.00
2019-04-22T15:52:33.408Z,3.50
2019-04-22T15:57:36.061Z,1.60
2019-04-22T16:02:39.372Z,2.75
2019-04-22T16:07:43.985Z,2.00
2019-04-22T16:12:57.533Z,2.40
2019-04-22T16:17:54.982Z,3.00
2019-04-22T16:23:20.244Z,1.80
2019-04-22T16:28:22.050Z,2.00
2019-04-22T16:33:25.833Z,2.00
2019-04-22T16:38:30.909Z,2.00
2019-04-22T16:43:36.260Z,2.00
2019-04-22T16:48:40.331Z,2.20
2019-04-22T16:53:45.247Z,1.20
2019-04-22T16:58:50.585Z,2.25
2019-04-22T17:04:02.794Z,2.00
2019-04-22T17:09:08.980Z,2.75
2019-04-22T17:14:13.385Z,2.00
2019-04-22T17:19:19.353Z,2.00
2019-04-22T17:24:23.664Z,2.25
2019-04-22T17:29:28.256Z,2.25
2019-04-22T17:34:33.455Z,3.00
2019-04-22T17:39:47.767Z,2.00
2019-04-22T17:45:25.992Z,2.50
2019-04-22T17:50:39.985Z,2.00
2019-04-22T17:55:50.609Z,4.25
2019-04-22T18:00:47.206Z,4.00
2019-04-22T18:05:43.690Z,4.25
2019-04-22T18:10:58.063Z,3.75
2019-04-22T18:16:10.193Z,3.00
2019-04-22T18:21:08.884Z,4.00
2019-04-22T18:26:14.313Z,3.00
2019-04-22T18:31:19.749Z,3.20
2019-04-22T18:36:27.773Z,4.00
2019-04-22T18:41:32.123Z,3.60
2019-04-22T18:46:36.565Z,2.75
2019-04-22T18:51:51.424Z,3.00
2019-04-22T18:56:50.507Z,3.00
2019-04-22T19:01:43.798Z,3.00
2019-04-22T19:07:15.457Z,4.00
2019-04-22T19:12:22.967Z,4.00
2019-04-22T19:17:35.575Z,4.00
2019-04-22T19:22:33.677Z,4.00
2019-04-22T19:27:31.314Z,3.75
2019-04-22T19:32:41.966Z,4.00
2019-04-22T19:37:36.761Z,5.00
2019-04-22T19:42:53.613Z,4.00
2019-04-22T19:47:58.204Z,4.00
2019-04-22T19:53:01.633Z,4.00
2019-04-22T19:58:05.490Z,5.00
2019-04-22T20:03:36.236Z,5.00
2019-04-22T20:08:34.239Z,4.00
2019-04-22T20:13:44.253Z,5.00
2019-04-22T20:18:54.793Z,5.00
2019-04-22T20:23:45.421Z,5.00
2019-04-22T20:28:58.891Z,5.00
2019-04-22T20:34:12.363Z,5.00
2019-04-22T20:39:06.544Z,5.00
2019-04-22T20:44:22.689Z,5.00
2019-04-22T20:49:27.733Z,5.00
2019-04-22T20:54:32.644Z,6.50
2019-04-22T20:59:33.206Z,6.00
2019-04-22T21:04:33.586Z,7.00
2019-04-22T21:09:43.090Z,5.00
2019-04-22T21:14:55.185Z,6.00
2019-04-22T21:20:00.625Z,7.40
2019-04-22T21:24:57.787Z,7.00
2019-04-22T21:29:58.196Z,7.00
2019-04-22T21:35:21.860Z,6.00
2019-04-22T21:40:20.158Z,6.00
2019-04-22T21:45:20.814Z,5.80
2019-04-22T21:50:41.556Z,7.80
2019-04-22T21:55:41.992Z,6.40
2019-04-22T22:01:00.818Z,5.75
2019-04-22T22:05:49.180Z,5.75
2019-04-22T22:11:03.691Z,6.00
2019-04-22T22:16:06.683Z,7.00
2019-04-22T22:21:34.950Z,6.75
2019-04-22T22:26:13.425Z,5.75
2019-04-22T22:31:28.591Z,6.00
2019-04-22T22:36:23.747Z,7.00
2019-04-22T22:41:16.083Z,6.80
2019-04-22T22:46:33.134Z,5.20
2019-04-22T22:52:26.226Z,5.00
2019-04-22T23:01:54.344Z,6.75
2019-04-22T23:07:00.480Z,6.20
2019-04-22T23:17:01.187Z,5.50
2019-04-22T23:22:05.555Z,6.00
2019-04-22T23:27:29.327Z,6.00
2019-04-22T23:32:26.908Z,6.00
2019-04-22T23:37:35.369Z,5.50
2019-04-22T23:42:44.624Z,5.00
2019-04-22T23:47:42.484Z,6.00
2019-04-22T23:52:58.111Z,6.00
2019-04-22T23:58:11.941Z,6.40
